Aberdeen, Kentucky
Current Conditions -  °F | °C
As of 2:53 PM on Monday 24 Nov 2014 (Local Time) from KBWG Reporting Station
Clear Clear  
Wind Chill: 54°   Ceiling: Unl
Heat Index: 54°   Visibility: 10mi
Dew Point: 33°   Wind: 17mph
Humidity: 45%   Direction: 250°WSW
Pressure: 29.8"   Gusts: 28mph
Location:  37.25°N, 86.68°W
Report Text: KBWG 242053Z AUTO 25015G24KT 10SM CLR 12/01 A2980 RMK AO2 PK WND 25026/1956 SLP090 60000 T01220006 53019
Loading
Personal Weather Stations






























Interactive Weather Map New forecast layout! Learn more

10-Day Weather Forecast

Advertisements
Track Severe Weather on mobile